• Join FlightAware (Why Join?)
  • Login
  • US Flag GB Flag 
02:29 EDT


 

Airport Tracker/Info


-or-


 

Live Flight TrackerFlight Track Log ✈ USC105 ✈ 17-Apr-2013 ✈ KBKL - KYIP

Flight Track Log - Related Links

Times and Time Zones

All times are in EDT time to prevent confusion due to time zone crossing. See the USC105 flight status page for this flight to view local times or setup timezone preferences in your user account.

Time Position Orientation Groundspeed Altitude Reporting Facility
EDT Latitude Longitude Course Direction KTS MPH feet Rate Location/Type
23:14 41.5294 -81.6731 348° North 136 157 1,100  Level Cleveland Center
23:14 41.5400 -81.6761 348° North 131 151 1,300 600 Climbing Cleveland Center
23:15 41.5644 -81.7153 310° West 160 184 1,900 720 Climbing Cleveland Center
23:16 41.5806 -81.7711 291° West 154 177 2,800 1,020 Climbing Cleveland Center
23:17 41.5928 -81.8186 289° West 124 143 4,000 1,140 Climbing Cleveland Center
23:18 41.6067 -81.8606 294° West 119 137 5,200 900 Climbing Cleveland Center
23:19 41.6189 -81.9025 291° West 120 138 5,900 720 Climbing Cleveland Center
23:20 41.6308 -81.9444 291° West 123 142 6,700 780 Climbing Cleveland Center
23:21 41.6428 -81.9892 290° West 127 146 7,600 600 Climbing Cleveland Center
23:22 41.6589 -82.0394 293° West 145 167 8,000 180 Climbing Cleveland Center
23:23 41.6789 -82.0956 296° West 176 203 8,000 -60 Level Cleveland Center
23:25 41.6989 -82.1628 292° West 165 190 7,900  Descending Cleveland Center
23:26 41.7169 -82.2189 293° West 168 193 8,000  Climbing Cleveland Center
23:27 41.7347 -82.2750 293° West 163 188 7,900 -60 Descending Cleveland Center
23:28 41.7528 -82.3339 292° West 167 192 7,900  Level Cleveland Center
23:29 41.7686 -82.3900 291° West 165 190 7,900  Level Cleveland Center
23:30 41.7864 -82.4489 292° West 166 191 7,900 60 Level Cleveland Center
23:30 41.7983 -82.4828 295° West 168 193 8,000  Climbing Cleveland Center
23:31 41.8222 -82.5531 295° West 164 189 8,000  Level Cleveland Center
23:32 41.8400 -82.6067 294° West 162 186 8,000  Level Cleveland Center
23:34 41.8767 -82.6525 317° Northwest 192 221 8,000  Level Cleveland Center
23:35 41.9092 -82.6925 318° Northwest 158 182 8,000 -360 Level Cleveland Center
23:36 41.9292 -82.7489 296° West 173 199 7,300 -540 Descending Cleveland Center
23:37 41.9489 -82.8083 294° West 165 190 7,000 -480 Descending Cleveland Center
23:38 41.9667 -82.8592 295° West 159 183 6,400 -720 Descending Cleveland Center
23:39 41.9903 -82.9242 296° West 172 198 5,500 -600 Descending Cleveland Center
23:40 42.0136 -82.9978 293° West 177 204 5,000 -240 Descending Cleveland Center
23:41 42.0375 -83.0547 299° West 155 178 5,000  Level Cleveland Center
23:42 42.0572 -83.1058 297° West 151 174 5,000  Level Cleveland Center
23:43 42.0792 -83.1542 301° West 146 168 5,000  Level Cleveland Center
23:44 42.0972 -83.1800 313° West 147 169 5,000  Level Cleveland Center
23:45 42.1236 -83.2203 311° West 148 170 5,000  Level Cleveland Center
23:45 42.1339 -83.2331 317° Northwest 145 167 5,000  Level FAA TRACON SMA TRACON (SMA)
23:45 42.1436 -83.2486 310° West 142 163 5,000  Level FAA TRACON SMA TRACON (SMA)
23:46 42.1503 -83.2617 305° West 137 158 5,000  Level FAA TRACON SMA TRACON (SMA)
23:46 42.1547 -83.2758 293° West 132 152 5,000  Level FAA TRACON SMA TRACON (SMA)
23:46 42.1594 -83.2936 290° West 131 151 5,000 120 Level FAA TRACON SMA TRACON (SMA)
23:47 42.1631 -83.3083 288° West 132 152 5,100  Climbing FAA TRACON SMA TRACON (SMA)
23:47 42.1672 -83.3258 288° West 134 154 5,000 -180 Descending FAA TRACON SMA TRACON (SMA)
23:47 42.1714 -83.3422 289° West 142 163 5,000  Level FAA TRACON SMA TRACON (SMA)
23:48 42.1756 -83.3567 291° West 141 162 5,000  Level FAA TRACON SMA TRACON (SMA)
23:48 42.1806 -83.3750 290° West 139 160 5,000  Level FAA TRACON SMA TRACON (SMA)
23:48 42.1844 -83.3892 290° West 138 159 5,000  Level FAA TRACON SMA TRACON (SMA)
23:49 42.1886 -83.4064 288° West 135 155 5,000 -300 Level FAA TRACON SMA TRACON (SMA)
23:49 42.1925 -83.4236 287° West 137 158 4,800 -900 Descending FAA TRACON SMA TRACON (SMA)
23:49 42.1961 -83.4406 286° West 162 186 4,400 -1,440 Descending FAA TRACON SMA TRACON (SMA)
23:50 42.2000 -83.4589 286° West 173 199 3,900 -1,620 Descending FAA TRACON SMA TRACON (SMA)
23:50 42.2047 -83.4850 284° West 186 214 3,300 -1,380 Descending FAA TRACON SMA TRACON (SMA)
23:50 42.2081 -83.5061 282° West 186 214 3,000 -600 Descending FAA TRACON SMA TRACON (SMA)
23:51 42.2100 -83.5300 276° West 160 184 2,900 -480 Descending FAA TRACON SMA TRACON (SMA)
23:51 42.2153 -83.5458 294° West 140 161 2,700 -780 Descending FAA TRACON SMA TRACON (SMA)
23:51 42.2189 -83.5611 288° West 132 152 2,400 -1,200 Descending FAA TRACON SMA TRACON (SMA)
23:52 42.2111 -83.5639 195° South 93 107 1,900 -1,320 Descending FAA TRACON SMA TRACON (SMA)
23:52 42.2183 -83.5558 40° Northeast 110 127 1,500 -1,200 Descending FAA TRACON SMA TRACON (SMA)
23:52 42.2250 -83.5478 42° Northeast 99 114 1,100 -960 Descending FAA TRACON SMA TRACON (SMA)
23:53 42.2297 -83.5408 47° Northeast 107 123 900 -240 Descending FAA TRACON SMA TRACON (SMA)
23:53 42.2297 -83.5408 312° West 107 123 900 2,520 Level FAA TRACON SMA TRACON (SMA)
23:55 42.1667 -84.4833 265° West 231 266 7,100 3,540 Climbing Chicago TRACON